Time;durP1;ratioP1;P1;durP2;ratioP2;P2;SDS_P1;SDS_P2;PMS_P1;PMS_P2;Temp;Humidity;BMP_temperature;BMP_pressure;BME280_temperature;BME280_humidity;BME280_pressure;Samples;Min_cycle;Max_cycle;Signal;HPM_P1;HPM_P2
2023/05/14 00:02:18;;;;;;;12.37;8.83;;;25.90;45.60;;;;;;5110556;28;20418;-79
2023/05/14 00:04:47;;;;;;;20.77;14.43;;;25.90;45.60;;;;;;5102349;28;20443;-80
2023/05/14 00:07:15;;;;;;;21.67;17.27;;;25.90;45.70;;;;;;5110396;28;20446;-79
2023/05/14 00:09:45;;;;;;;27.80;20.17;;;25.90;45.70;;;;;;5101763;28;20581;-79
2023/05/14 00:12:13;;;;;;;24.63;16.47;;;25.80;45.60;;;;;;5106550;28;20514;-78
2023/05/14 00:14:41;;;;;;;23.27;18.37;;;25.80;45.80;;;;;;5093614;28;20412;-80
2023/05/14 00:17:09;;;;;;;26.03;18.50;;;25.80;45.80;;;;;;5110832;28;20521;-79
2023/05/14 00:19:40;;;;;;;27.60;20.00;;;25.80;46.30;;;;;;5102827;28;20403;-80
2023/05/14 00:22:10;;;;;;;24.10;18.30;;;25.80;45.80;;;;;;5101806;28;20432;-79
2023/05/14 00:24:38;;;;;;;26.03;19.60;;;25.70;45.80;;;;;;5102830;28;20536;-80
2023/05/14 00:27:08;;;;;;;26.80;20.03;;;25.70;45.80;;;;;;5090661;28;20491;-80
2023/05/14 00:29:37;;;;;;;27.40;18.83;;;25.70;45.90;;;;;;5098435;28;20448;-80
2023/05/14 00:32:06;;;;;;;25.50;19.00;;;25.70;46.10;;;;;;5111305;28;20519;-80
2023/05/14 00:34:35;;;;;;;25.97;20.03;;;25.60;45.90;;;;;;5102081;28;20408;-79
2023/05/14 00:37:03;;;;;;;26.37;19.60;;;25.60;45.90;;;;;;5103907;28;20496;-80
2023/05/14 00:39:31;;;;;;;28.80;19.90;;;25.60;46.00;;;;;;5080946;28;20424;-79
2023/05/14 00:41:59;;;;;;;25.70;18.80;;;25.60;45.90;;;;;;5095822;28;20453;-80
2023/05/14 00:44:28;;;;;;;25.87;19.27;;;25.60;46.00;;;;;;5089913;28;20466;-80
2023/05/14 00:46:57;;;;;;;24.50;17.90;;;25.60;45.90;;;;;;5097315;28;20466;-80
2023/05/14 00:49:25;;;;;;;23.20;17.43;;;25.60;45.90;;;;;;5080975;28;20432;-78
2023/05/14 00:51:54;;;;;;;23.97;18.77;;;25.50;46.00;;;;;;5076043;28;20430;-78
2023/05/14 00:54:22;;;;;;;23.27;16.77;;;25.50;46.10;;;;;;5095099;28;20505;-78
2023/05/14 00:56:54;;;;;;;23.40;17.73;;;25.50;46.00;;;;;;5075502;28;20426;-78
2023/05/14 00:59:22;;;;;;;22.83;16.70;;;25.50;46.00;;;;;;5081765;28;20423;-78
2023/05/14 01:01:52;;;;;;;21.23;16.70;;;25.50;46.00;;;;;;5084015;28;20437;-78
2023/05/14 01:04:20;;;;;;;21.70;15.63;;;25.40;46.00;;;;;;5089681;28;20439;-79
2023/05/14 01:06:54;;;;;;;23.73;15.80;;;25.40;46.00;;;;;;5092224;28;20442;-78
2023/05/14 01:09:25;;;;;;;19.40;14.57;;;25.40;46.00;;;;;;5090119;28;20415;-79
2023/05/14 01:11:58;;;;;;;19.50;14.43;;;25.40;46.00;;;;;;5092291;28;20502;-78
2023/05/14 01:14:32;;;;;;;21.77;15.00;;;25.40;46.00;;;;;;5088782;28;20582;-77
2023/05/14 01:17:05;;;;;;;17.90;14.43;;;25.30;46.00;;;;;;5095346;28;20488;-79
2023/05/14 01:19:36;;;;;;;16.80;14.10;;;25.30;46.20;;;;;;5086425;28;20929;-78
2023/05/14 01:22:05;;;;;;;18.00;14.00;;;25.30;46.30;;;;;;5095101;28;20443;-79
2023/05/14 01:24:33;;;;;;;19.87;13.30;;;25.30;46.40;;;;;;5078567;28;20444;-79
2023/05/14 01:27:05;;;;;;;22.40;12.90;;;25.30;46.30;;;;;;5090940;28;20925;-80
2023/05/14 01:29:36;;;;;;;15.67;13.30;;;25.20;46.20;;;;;;5086637;28;20416;-78
2023/05/14 01:32:06;;;;;;;16.73;12.63;;;25.20;46.30;;;;;;5093704;28;20445;-78
2023/05/14 01:34:36;;;;;;;15.40;12.83;;;25.20;46.30;;;;;;5094312;28;20497;-79
2023/05/14 01:37:06;;;;;;;18.70;11.93;;;25.20;46.40;;;;;;5093756;28;20937;-79
2023/05/14 01:39:36;;;;;;;14.00;11.90;;;25.20;46.40;;;;;;5079161;28;20442;-79
2023/05/14 01:42:05;;;;;;;14.63;11.90;;;25.20;46.40;;;;;;5086445;28;20449;-78
2023/05/14 01:44:33;;;;;;;13.67;11.40;;;25.20;46.30;;;;;;5094750;28;20533;-79
2023/05/14 01:47:01;;;;;;;14.67;11.87;;;25.10;46.40;;;;;;5081990;28;20469;-78
2023/05/14 01:49:29;;;;;;;14.40;12.00;;;25.10;46.30;;;;;;5085331;28;20452;-78
2023/05/14 01:51:57;;;;;;;14.87;10.70;;;25.10;46.50;;;;;;5085742;28;20524;-78
2023/05/14 01:54:27;;;;;;;18.40;11.40;;;25.10;46.40;;;;;;5078364;28;20472;-79
2023/05/14 01:56:56;;;;;;;12.10;10.33;;;25.10;46.50;;;;;;5085291;28;20429;-79
2023/05/14 01:59:24;;;;;;;13.23;10.60;;;25.00;46.50;;;;;;5087206;28;20450;-79
2023/05/14 02:01:54;;;;;;;12.43;10.70;;;25.00;46.40;;;;;;5082233;28;20452;-78
2023/05/14 02:04:23;;;;;;;13.40;10.83;;;25.00;46.60;;;;;;5076668;28;20474;-79
2023/05/14 02:06:51;;;;;;;11.93;9.63;;;25.00;46.50;;;;;;5085397;28;20474;-79
2023/05/14 02:09:20;;;;;;;11.03;9.73;;;25.00;46.70;;;;;;5087860;28;20442;-78
2023/05/14 02:11:49;;;;;;;11.83;9.40;;;24.90;46.60;;;;;;5082351;28;20441;-78
2023/05/14 02:14:17;;;;;;;11.37;9.10;;;24.90;46.60;;;;;;5087169;28;20457;-79
2023/05/14 02:16:45;;;;;;;17.73;9.57;;;24.90;46.60;;;;;;5085274;28;20448;-79
2023/05/14 02:19:14;;;;;;;11.43;9.53;;;24.90;47.30;;;;;;5080475;28;20446;-78
2023/05/14 02:21:42;;;;;;;10.23;8.97;;;24.80;46.70;;;;;;5091169;28;20528;-78
2023/05/14 02:24:10;;;;;;;11.97;9.53;;;24.80;46.70;;;;;;5078530;28;20548;-78
2023/05/14 02:26:39;;;;;;;10.70;9.07;;;24.80;46.70;;;;;;5082015;28;20465;-77
2023/05/14 02:29:09;;;;;;;10.57;8.33;;;24.80;46.90;;;;;;5085409;28;20650;-78
2023/05/14 02:31:37;;;;;;;10.23;8.00;;;24.80;46.80;;;;;;5094062;28;20540;-78
2023/05/14 02:34:05;;;;;;;10.83;8.60;;;24.80;46.80;;;;;;5094079;28;20522;-79
2023/05/14 02:36:33;;;;;;;10.97;8.20;;;24.70;46.60;;;;;;5085523;28;20937;-78
2023/05/14 02:39:03;;;;;;;9.80;8.67;;;24.70;46.80;;;;;;5076787;28;20456;-78
2023/05/14 02:41:33;;;;;;;9.53;7.87;;;24.60;46.80;;;;;;5092979;28;20440;-79
2023/05/14 02:44:02;;;;;;;8.53;7.70;;;24.60;47.50;;;;;;5073138;28;20554;-79
2023/05/14 02:46:32;;;;;;;8.90;8.00;;;24.60;46.90;;;;;;5081399;28;20449;-79
2023/05/14 02:49:01;;;;;;;8.27;7.47;;;24.60;46.80;;;;;;5081811;28;20431;-79
2023/05/14 02:51:29;;;;;;;10.80;8.03;;;24.60;47.00;;;;;;5072840;28;20416;-79
2023/05/14 02:53:58;;;;;;;8.97;7.30;;;24.60;47.00;;;;;;5073642;28;20504;-79
2023/05/14 02:56:26;;;;;;;9.40;7.80;;;24.60;47.10;;;;;;5093598;28;20426;-79
2023/05/14 02:58:54;;;;;;;8.40;7.60;;;24.50;46.80;;;;;;5075797;28;20416;-78
2023/05/14 03:01:23;;;;;;;10.90;7.67;;;24.50;47.00;;;;;;5085934;28;20504;-79
2023/05/14 03:03:55;;;;;;;7.73;6.93;;;24.50;47.00;;;;;;5081642;28;20525;-79
2023/05/14 03:06:23;;;;;;;7.73;6.90;;;24.40;47.00;;;;;;5088574;28;20847;-79
2023/05/14 03:08:51;;;;;;;7.97;7.17;;;24.40;46.90;;;;;;5084556;28;20451;-80
2023/05/14 03:11:22;;;;;;;8.90;7.23;;;24.40;47.20;;;;;;5088053;28;20535;-78
2023/05/14 03:13:50;;;;;;;8.73;7.60;;;24.40;47.10;;;;;;5083600;28;20462;-79
2023/05/14 03:16:18;;;;;;;7.50;6.73;;;24.40;47.10;;;;;;5082311;28;20448;-79
2023/05/14 03:18:47;;;;;;;9.50;6.43;;;24.40;47.20;;;;;;5076576;28;20441;-79
2023/05/14 03:21:16;;;;;;;7.40;6.67;;;24.40;47.20;;;;;;5081976;28;20441;-80
2023/05/14 03:23:44;;;;;;;7.23;6.30;;;24.40;47.10;;;;;;5090385;28;20456;-79
2023/05/14 03:26:12;;;;;;;7.63;6.93;;;24.40;47.30;;;;;;5092207;28;20447;-79
2023/05/14 03:28:40;;;;;;;10.67;6.27;;;24.30;47.00;;;;;;5084972;28;20966;-79
2023/05/14 03:31:09;;;;;;;7.37;6.60;;;24.30;47.20;;;;;;5088003;28;20456;-79
2023/05/14 03:33:37;;;;;;;9.73;7.00;;;24.30;47.20;;;;;;5086054;28;20443;-79
2023/05/14 03:36:06;;;;;;;7.00;6.30;;;24.30;47.20;;;;;;5083767;28;20448;-79
2023/05/14 03:38:36;;;;;;;7.67;6.97;;;24.30;47.20;;;;;;5089415;28;20441;-80
2023/05/14 03:41:04;;;;;;;9.50;6.50;;;24.30;47.30;;;;;;5075720;28;20443;-79
2023/05/14 03:43:32;;;;;;;10.27;6.77;;;24.20;47.30;;;;;;5088438;28;20480;-80
2023/05/14 03:46:00;;;;;;;7.10;6.40;;;24.20;47.30;;;;;;5082543;28;20437;-79
2023/05/14 03:48:28;;;;;;;8.60;5.80;;;24.20;47.30;;;;;;5072343;28;20470;-79
2023/05/14 03:50:56;;;;;;;7.30;6.60;;;24.20;47.30;;;;;;5082666;28;20440;-79
2023/05/14 03:53:24;;;;;;;7.33;5.90;;;24.20;47.40;;;;;;5077951;28;20469;-79
2023/05/14 03:55:53;;;;;;;5.87;5.37;;;24.20;47.40;;;;;;5088690;28;20453;-78
2023/05/14 03:58:21;;;;;;;6.50;5.90;;;24.20;47.40;;;;;;5083663;28;20437;-79
2023/05/14 04:00:49;;;;;;;6.10;5.50;;;24.10;47.30;;;;;;5077190;28;20448;-79
2023/05/14 04:03:17;;;;;;;8.20;5.73;;;24.10;47.40;;;;;;5080615;28;20447;-79
2023/05/14 04:05:46;;;;;;;6.50;5.90;;;24.10;47.30;;;;;;5080386;28;20470;-79
2023/05/14 04:08:14;;;;;;;6.50;5.90;;;24.10;47.30;;;;;;5082528;28;20442;-78
2023/05/14 04:10:46;;;;;;;6.97;6.27;;;24.10;47.50;;;;;;5089476;28;20448;-78
2023/05/14 04:13:16;;;;;;;6.63;6.03;;;24.10;47.30;;;;;;5091373;28;20512;-79
2023/05/14 04:15:45;;;;;;;7.23;6.53;;;24.10;47.30;;;;;;5092536;28;20441;-79
2023/05/14 04:18:13;;;;;;;9.60;6.10;;;24.10;47.50;;;;;;5084981;28;20449;-79
2023/05/14 04:20:41;;;;;;;6.50;5.90;;;24.10;47.60;;;;;;5087480;28;20528;-78
2023/05/14 04:23:09;;;;;;;6.83;6.23;;;24.10;47.40;;;;;;5083610;28;20734;-78
2023/05/14 04:25:38;;;;;;;6.80;6.20;;;24.10;47.50;;;;;;5091176;28;20447;-77
2023/05/14 04:28:06;;;;;;;6.40;5.90;;;24.00;47.50;;;;;;5086670;28;20464;-78
2023/05/14 04:30:35;;;;;;;6.83;5.50;;;24.10;47.60;;;;;;5087873;28;20442;-80
2023/05/14 04:33:03;;;;;;;7.83;5.63;;;24.10;47.60;;;;;;5096642;28;20474;-79
2023/05/14 04:35:32;;;;;;;5.87;5.47;;;24.10;47.50;;;;;;5083018;28;20450;-79
2023/05/14 04:38:00;;;;;;;6.57;5.73;;;24.10;47.80;;;;;;5093158;28;20429;-79
2023/05/14 04:40:28;;;;;;;6.20;5.60;;;24.10;47.70;;;;;;5076765;28;20460;-80
2023/05/14 04:42:56;;;;;;;6.20;5.70;;;24.00;47.60;;;;;;5086380;28;20468;-79
2023/05/14 04:45:25;;;;;;;5.80;5.40;;;24.00;47.60;;;;;;5082616;28;20412;-80
2023/05/14 04:47:55;;;;;;;5.80;5.27;;;24.00;47.60;;;;;;5094629;28;20475;-79
2023/05/14 04:50:23;;;;;;;5.77;5.23;;;24.00;47.60;;;;;;5082921;28;20970;-80
2023/05/14 04:52:54;;;;;;;6.20;5.70;;;24.10;47.50;;;;;;5085958;28;20496;-80
2023/05/14 04:55:23;;;;;;;5.30;4.87;;;24.00;47.60;;;;;;5091359;28;20442;-79
2023/05/14 04:57:51;;;;;;;6.30;5.70;;;24.00;47.60;;;;;;5084684;28;20438;-80
2023/05/14 05:00:20;;;;;;;5.40;4.90;;;24.00;47.50;;;;;;5089313;28;20450;-79
2023/05/14 05:02:49;;;;;;;6.13;5.53;;;24.00;47.60;;;;;;5097124;28;20467;-79
2023/05/14 05:05:19;;;;;;;5.10;4.70;;;24.00;47.60;;;;;;5084454;28;20447;-80
2023/05/14 05:07:48;;;;;;;5.30;4.90;;;24.00;47.60;;;;;;5080075;28;20454;-80
2023/05/14 05:10:16;;;;;;;5.60;5.10;;;24.10;47.70;;;;;;5086106;28;20452;-79
2023/05/14 05:12:44;;;;;;;6.37;4.80;;;24.10;47.40;;;;;;5096088;28;20556;-79
2023/05/14 05:15:13;;;;;;;5.83;5.30;;;24.10;47.50;;;;;;5092391;28;20452;-79
2023/05/14 05:17:41;;;;;;;6.20;5.70;;;24.10;47.50;;;;;;5091358;28;20426;-79
2023/05/14 05:20:10;;;;;;;5.80;5.30;;;24.10;47.50;;;;;;5080938;28;20452;-79
2023/05/14 05:22:40;;;;;;;5.47;5.03;;;24.10;47.50;;;;;;5083129;28;20551;-80
2023/05/14 05:25:10;;;;;;;5.60;5.10;;;24.10;47.40;;;;;;5092452;28;20441;-80
2023/05/14 05:27:38;;;;;;;5.77;5.27;;;24.10;47.30;;;;;;5091124;28;20447;-79
2023/05/14 05:30:09;;;;;;;5.63;5.13;;;24.10;47.50;;;;;;5093416;28;20473;-80
2023/05/14 05:32:37;;;;;;;5.63;5.20;;;24.10;47.40;;;;;;5075737;28;20461;-81
2023/05/14 05:35:06;;;;;;;5.53;5.03;;;24.10;47.30;;;;;;5090814;28;20465;-75
2023/05/14 05:37:34;;;;;;;7.03;5.33;;;24.10;47.40;;;;;;5089360;28;20453;-77
2023/05/14 05:40:04;;;;;;;5.27;4.77;;;24.20;47.40;;;;;;5083308;28;20441;-78
2023/05/14 05:42:33;;;;;;;5.57;5.07;;;24.20;47.40;;;;;;5087847;28;20522;-79
2023/05/14 05:45:01;;;;;;;5.23;4.73;;;24.20;47.30;;;;;;5092115;28;20529;-78
2023/05/14 05:47:29;;;;;;;4.83;4.53;;;24.20;47.40;;;;;;5080013;28;20430;-79
2023/05/14 05:49:57;;;;;;;5.70;5.10;;;24.20;47.60;;;;;;5082276;28;20477;-78
2023/05/14 05:52:25;;;;;;;4.87;4.40;;;24.20;47.50;;;;;;5077656;28;21042;-78
2023/05/14 05:54:53;;;;;;;5.10;4.70;;;24.20;47.40;;;;;;5074188;28;20450;-78
2023/05/14 05:57:25;;;;;;;5.33;4.87;;;24.20;47.40;;;;;;5083277;28;20449;-79
2023/05/14 05:59:53;;;;;;;5.40;4.90;;;24.30;47.30;;;;;;5093969;28;20427;-77
2023/05/14 06:02:22;;;;;;;5.00;4.60;;;24.30;47.30;;;;;;5093487;28;20441;-78
2023/05/14 06:04:50;;;;;;;5.50;5.03;;;24.30;47.20;;;;;;5085468;28;20437;-78
2023/05/14 06:07:18;;;;;;;5.67;5.17;;;24.30;47.30;;;;;;5073462;28;20445;-79
2023/05/14 06:09:46;;;;;;;5.50;5.00;;;24.30;47.30;;;;;;5082693;28;20965;-79
2023/05/14 06:12:14;;;;;;;4.93;4.53;;;24.30;47.20;;;;;;5093567;28;20445;-79
2023/05/14 06:14:44;;;;;;;4.90;4.57;;;24.30;47.30;;;;;;5093453;28;20445;-79
2023/05/14 06:17:12;;;;;;;5.00;4.70;;;24.40;47.20;;;;;;5089794;28;20441;-79
2023/05/14 06:19:41;;;;;;;5.30;4.90;;;24.40;47.10;;;;;;5080416;28;20456;-78
2023/05/14 06:22:09;;;;;;;5.77;5.27;;;24.40;47.10;;;;;;5084963;28;20536;-78
2023/05/14 06:24:37;;;;;;;5.03;4.63;;;24.40;47.10;;;;;;5078643;28;20446;-78
2023/05/14 06:27:06;;;;;;;5.23;4.83;;;24.40;47.00;;;;;;5073111;28;20481;-79
2023/05/14 06:29:34;;;;;;;5.43;5.03;;;24.40;47.10;;;;;;5074830;28;20476;-79
2023/05/14 06:32:04;;;;;;;5.03;4.63;;;24.40;47.20;;;;;;5091364;28;20443;-78
2023/05/14 06:34:33;;;;;;;4.70;4.40;;;24.40;47.20;;;;;;5072865;28;20453;-79
2023/05/14 06:37:02;;;;;;;5.57;5.17;;;24.40;47.10;;;;;;5082620;28;20513;-78
2023/05/14 06:39:31;;;;;;;5.20;4.80;;;24.50;47.30;;;;;;5084676;28;20536;-78
2023/05/14 06:41:59;;;;;;;5.13;4.73;;;24.50;47.10;;;;;;5083234;28;20437;-78
2023/05/14 06:44:27;;;;;;;5.50;5.10;;;24.50;47.00;;;;;;5086054;28;20465;-78
2023/05/14 06:46:56;;;;;;;5.80;5.40;;;24.60;47.10;;;;;;5083984;28;20446;-78
2023/05/14 06:49:25;;;;;;;5.83;5.43;;;24.60;47.00;;;;;;5092385;28;20483;-78
2023/05/14 06:51:53;;;;;;;6.00;5.53;;;24.60;47.00;;;;;;5092150;28;20480;-79
2023/05/14 06:54:21;;;;;;;6.40;5.67;;;24.70;47.00;;;;;;5076034;28;20462;-79
2023/05/14 06:56:50;;;;;;;6.03;5.47;;;24.70;46.90;;;;;;5089021;28;20483;-79
2023/05/14 06:59:18;;;;;;;5.97;5.47;;;24.80;47.00;;;;;;5077759;28;20441;-79
2023/05/14 07:01:46;;;;;;;6.20;5.60;;;24.70;46.80;;;;;;5076678;28;20441;-78
2023/05/14 07:04:15;;;;;;;6.73;6.17;;;24.80;46.80;;;;;;5075921;28;20485;-79
2023/05/14 07:06:46;;;;;;;5.90;5.40;;;24.80;46.90;;;;;;5090620;28;20449;-79
2023/05/14 07:09:16;;;;;;;5.93;5.43;;;24.90;46.90;;;;;;5089449;28;20532;-79
2023/05/14 07:11:44;;;;;;;6.60;6.10;;;24.90;46.90;;;;;;5076697;28;20451;-79
2023/05/14 07:14:13;;;;;;;6.77;5.50;;;24.90;47.00;;;;;;5083917;28;20445;-79
2023/05/14 07:16:41;;;;;;;6.47;5.97;;;25.00;46.80;;;;;;5086453;28;20456;-79
2023/05/14 07:19:09;;;;;;;6.10;5.50;;;25.00;46.80;;;;;;5084064;28;20446;-79
2023/05/14 07:21:38;;;;;;;6.50;6.00;;;25.00;46.80;;;;;;5085846;28;20420;-79
2023/05/14 07:24:08;;;;;;;6.20;5.37;;;25.10;46.90;;;;;;5089584;28;20443;-79
2023/05/14 07:26:36;;;;;;;6.23;5.70;;;25.10;46.80;;;;;;5077547;28;20462;-79
2023/05/14 07:29:04;;;;;;;9.10;6.10;;;25.20;46.80;;;;;;5073150;28;20532;-79
2023/05/14 07:31:33;;;;;;;6.10;5.70;;;25.20;46.70;;;;;;5086350;28;20445;-79
2023/05/14 07:34:01;;;;;;;7.03;6.33;;;25.30;46.70;;;;;;5072396;28;20465;-78
2023/05/14 07:36:30;;;;;;;5.13;4.80;;;25.30;46.60;;;;;;5076934;28;20529;-77
2023/05/14 07:38:58;;;;;;;6.47;5.90;;;25.40;46.50;;;;;;5083506;28;20445;-78
2023/05/14 07:41:28;;;;;;;5.93;5.43;;;25.40;46.60;;;;;;5083834;28;20463;-78
2023/05/14 07:43:56;;;;;;;6.20;5.70;;;25.40;46.40;;;;;;5092725;28;20468;-79
2023/05/14 07:46:25;;;;;;;5.80;5.40;;;25.50;46.40;;;;;;5083907;28;20921;-79
2023/05/14 07:48:53;;;;;;;6.87;5.90;;;25.50;46.40;;;;;;5081329;28;20479;-79
2023/05/14 07:51:21;;;;;;;6.10;5.60;;;25.60;46.40;;;;;;5093134;28;20443;-79
2023/05/14 07:53:50;;;;;;;5.20;4.90;;;25.70;46.30;;;;;;5085351;28;20460;-77
2023/05/14 07:56:18;;;;;;;6.13;5.63;;;25.70;46.30;;;;;;5083099;28;20421;-78
2023/05/14 07:58:48;;;;;;;5.90;5.40;;;25.70;46.10;;;;;;5082948;28;20432;-78
2023/05/14 08:01:16;;;;;;;6.57;5.40;;;25.80;46.00;;;;;;5091845;28;20416;-79
2023/05/14 08:03:45;;;;;;;5.87;5.37;;;25.80;45.90;;;;;;5078547;28;20469;-78
2023/05/14 08:06:13;;;;;;;5.33;4.93;;;25.90;46.00;;;;;;5093133;28;20441;-79
2023/05/14 08:08:42;;;;;;;6.40;5.10;;;25.90;46.00;;;;;;5090888;28;20472;-79
2023/05/14 08:11:10;;;;;;;5.70;5.30;;;26.00;45.90;;;;;;5084578;28;20475;-79
2023/05/14 08:13:38;;;;;;;6.30;5.80;;;26.00;45.90;;;;;;5083288;28;20440;-79
2023/05/14 08:16:09;;;;;;;5.90;5.40;;;26.10;45.90;;;;;;5082330;28;20511;-78
2023/05/14 08:18:37;;;;;;;5.53;5.13;;;26.20;45.80;;;;;;5083738;28;20532;-78
2023/05/14 08:21:07;;;;;;;5.33;5.00;;;26.30;45.70;;;;;;5089743;28;20448;-79
2023/05/14 08:23:35;;;;;;;6.13;5.63;;;26.30;45.70;;;;;;5088740;28;20446;-79
2023/05/14 08:26:04;;;;;;;5.87;5.37;;;26.40;45.70;;;;;;5095611;28;20441;-79
2023/05/14 08:28:33;;;;;;;5.63;5.20;;;26.50;45.60;;;;;;5096150;28;20415;-79
2023/05/14 08:31:01;;;;;;;5.37;5.00;;;26.60;45.40;;;;;;5093987;28;20467;-79
2023/05/14 08:33:33;;;;;;;5.60;5.10;;;26.70;45.30;;;;;;5094684;28;20439;-81
2023/05/14 08:36:01;;;;;;;5.33;4.93;;;26.90;45.10;;;;;;5096204;28;20963;-80
2023/05/14 08:38:32;;;;;;;5.50;5.10;;;27.00;44.90;;;;;;5088460;28;20449;-78
2023/05/14 08:41:00;;;;;;;5.20;4.80;;;27.00;44.80;;;;;;5087670;28;20426;-80
2023/05/14 08:43:30;;;;;;;5.20;4.80;;;27.10;44.70;;;;;;5082388;28;20461;-79
2023/05/14 08:46:00;;;;;;;4.90;4.50;;;27.20;44.60;;;;;;5091011;28;20521;-79
2023/05/14 08:48:32;;;;;;;5.53;5.03;;;27.30;44.60;;;;;;5089606;28;20451;-79
2023/05/14 08:51:01;;;;;;;5.13;4.83;;;27.50;44.40;;;;;;5087781;28;20518;-79
2023/05/14 08:53:29;;;;;;;4.83;4.53;;;27.60;44.20;;;;;;5080442;28;20465;-79
2023/05/14 08:55:57;;;;;;;4.67;4.30;;;27.80;44.00;;;;;;5088540;28;20445;-78
2023/05/14 08:58:27;;;;;;;4.83;4.50;;;28.00;43.90;;;;;;5081018;28;20417;-79
2023/05/14 09:00:56;;;;;;;4.63;4.33;;;28.20;43.60;;;;;;5080933;28;20408;-79
2023/05/14 09:03:24;;;;;;;4.97;4.47;;;28.30;43.30;;;;;;5085193;28;20434;-79
2023/05/14 09:05:53;;;;;;;4.40;4.20;;;28.50;43.20;;;;;;5086286;28;20453;-79
2023/05/14 09:08:21;;;;;;;4.70;4.40;;;28.60;42.90;;;;;;5081844;28;20429;-79
2023/05/14 09:10:49;;;;;;;7.30;4.70;;;28.70;42.90;;;;;;5088991;28;20455;-79
2023/05/14 09:13:18;;;;;;;4.80;4.50;;;28.70;42.70;;;;;;5091038;28;20445;-79
2023/05/14 09:15:47;;;;;;;4.67;4.37;;;28.80;42.60;;;;;;5088520;28;20445;-79
2023/05/14 09:18:15;;;;;;;4.50;4.13;;;29.00;42.70;;;;;;5091887;28;20432;-79
2023/05/14 09:20:43;;;;;;;4.40;4.20;;;29.00;42.50;;;;;;5088357;28;20417;-79
2023/05/14 09:23:13;;;;;;;4.53;4.23;;;29.10;42.50;;;;;;5083438;28;20447;-80
2023/05/14 09:25:42;;;;;;;4.17;3.93;;;29.10;42.30;;;;;;5080714;28;20445;-80
2023/05/14 09:28:10;;;;;;;4.70;4.40;;;29.10;42.40;;;;;;5093421;28;20437;-80
2023/05/14 09:30:37;;;;;;;4.63;4.33;;;29.10;42.30;;;;;;5088720;28;20476;-80
2023/05/14 09:33:09;;;;;;;4.50;4.20;;;29.20;42.30;;;;;;5073337;28;20458;-80
2023/05/14 09:35:39;;;;;;;4.37;4.07;;;29.20;42.30;;;;;;5080389;28;20434;-78
2023/05/14 09:38:07;;;;;;;3.73;3.53;;;29.30;42.30;;;;;;5090945;28;20437;-78
2023/05/14 09:40:36;;;;;;;4.63;4.33;;;29.40;42.40;;;;;;5087811;28;20963;-79
2023/05/14 09:43:04;;;;;;;3.97;3.67;;;29.40;42.20;;;;;;5091937;28;20476;-79
2023/05/14 09:45:34;;;;;;;4.00;3.80;;;29.50;42.10;;;;;;5093330;28;20415;-79
2023/05/14 09:48:02;;;;;;;3.97;3.77;;;29.60;42.10;;;;;;5077117;28;20412;-79
2023/05/14 09:50:30;;;;;;;4.07;3.87;;;29.70;41.90;;;;;;5073312;28;20440;-79
2023/05/14 09:52:59;;;;;;;4.43;4.20;;;29.90;41.90;;;;;;5088025;28;20461;-79
2023/05/14 09:55:27;;;;;;;4.03;3.83;;;30.00;41.70;;;;;;5093736;28;20455;-79
2023/05/14 09:57:56;;;;;;;4.07;3.77;;;30.10;41.60;;;;;;5093724;28;20422;-79
2023/05/14 10:00:25;;;;;;;4.07;3.87;;;30.20;41.40;;;;;;5085591;28;20452;-79
2023/05/14 10:02:53;;;;;;;3.90;3.70;;;30.30;41.30;;;;;;5092494;28;20472;-80
2023/05/14 10:05:21;;;;;;;4.90;3.67;;;30.30;41.20;;;;;;5074803;28;20421;-80
2023/05/14 10:07:50;;;;;;;3.93;3.73;;;30.30;41.10;;;;;;5073659;28;20452;-81
2023/05/14 10:10:19;;;;;;;4.37;4.07;;;30.30;40.90;;;;;;5078082;28;20456;-80
2023/05/14 10:12:51;;;;;;;3.87;3.60;;;30.30;41.00;;;;;;5072963;28;20500;-78
2023/05/14 10:15:23;;;;;;;4.50;4.10;;;30.40;41.00;;;;;;5081237;28;20477;-80
2023/05/14 10:17:54;;;;;;;3.30;3.20;;;30.50;40.80;;;;;;5089834;28;20443;-80
2023/05/14 10:20:22;;;;;;;3.93;3.73;;;30.60;40.70;;;;;;5082393;28;20400;-78
2023/05/14 10:22:51;;;;;;;3.40;3.20;;;30.70;40.50;;;;;;5081960;28;20431;-78
2023/05/14 10:25:20;;;;;;;3.67;3.47;;;30.90;40.40;;;;;;5084962;28;20421;-79
2023/05/14 10:27:47;;;;;;;3.63;3.33;;;31.00;40.20;;;;;;5095009;28;20434;-78
2023/05/14 10:30:16;;;;;;;13.50;3.37;;;31.00;39.50;;;;;;5096982;28;20469;-78
2023/05/14 10:32:47;;;;;;;13.03;3.93;;;30.90;40.20;;;;;;5090939;28;20444;-79
2023/05/14 10:35:17;;;;;;;10.80;3.83;;;30.70;40.60;;;;;;5089032;28;20482;-82
2023/05/14 10:37:46;;;;;;;9.90;4.00;;;30.60;40.90;;;;;;5092161;28;20460;-81
2023/05/14 10:40:14;;;;;;;7.57;4.60;;;30.50;40.70;;;;;;5093386;28;20498;-81
2023/05/14 10:42:42;;;;;;;3.97;3.60;;;30.20;37.50;;;;;;5085667;28;20439;-79
2023/05/14 10:45:12;;;;;;;6.73;4.20;;;29.70;36.20;;;;;;5087441;28;20445;-80
2023/05/14 10:47:49;;;;;;;4.13;3.93;;;29.40;36.10;;;;;;5086290;28;20421;-78
2023/05/14 10:50:17;;;;;;;3.93;3.50;;;29.20;35.40;;;;;;5084132;28;20422;-79
2023/05/14 10:52:45;;;;;;;5.47;3.80;;;29.30;35.80;;;;;;5089950;28;20451;-78
2023/05/14 10:55:14;;;;;;;5.50;4.13;;;29.50;37.80;;;;;;5085388;28;20420;-79
2023/05/14 10:57:43;;;;;;;5.50;3.50;;;29.60;38.20;;;;;;5078506;28;20924;-80
2023/05/14 11:00:12;;;;;;;4.13;3.73;;;29.60;38.40;;;;;;5084829;28;20477;-80
2023/05/14 11:02:41;;;;;;;4.50;4.10;;;29.50;38.10;;;;;;5095294;28;20507;-78
2023/05/14 11:05:14;;;;;;;5.17;4.00;;;29.50;38.00;;;;;;5092947;28;20444;-79
2023/05/14 11:07:43;;;;;;;10.40;4.60;;;29.50;37.60;;;;;;5085930;28;20441;-79
2023/05/14 11:10:12;;;;;;;8.33;3.77;;;29.60;37.40;;;;;;5088709;28;20440;-79
2023/05/14 11:12:42;;;;;;;4.37;4.00;;;29.60;37.20;;;;;;5093303;28;20469;-79
2023/05/14 11:15:11;;;;;;;4.10;3.70;;;29.70;37.20;;;;;;5083921;28;20426;-79
2023/05/14 11:17:40;;;;;;;3.90;3.70;;;29.70;36.70;;;;;;5084174;28;20801;-80
2023/05/14 11:20:09;;;;;;;4.07;3.63;;;29.80;35.50;;;;;;5098433;28;20450;-81
2023/05/14 11:22:39;;;;;;;4.57;4.17;;;29.70;36.00;;;;;;5099679;28;20560;-80
2023/05/14 11:25:08;;;;;;;5.33;4.80;;;29.90;36.30;;;;;;5097162;28;20500;-80
2023/05/14 11:27:37;;;;;;;5.40;4.30;;;30.00;36.10;;;;;;5077888;28;20419;-77
2023/05/14 11:30:11;;;;;;;4.63;3.80;;;29.90;33.80;;;;;;5088109;28;20502;-79
2023/05/14 11:32:39;;;;;;;5.70;4.23;;;29.80;33.00;;;;;;5092171;28;20450;-81
2023/05/14 11:35:08;;;;;;;4.60;4.20;;;29.80;34.70;;;;;;5087415;28;20446;-80
2023/05/14 11:37:36;;;;;;;6.83;4.60;;;29.90;35.20;;;;;;5083799;28;20630;-81
2023/05/14 11:40:07;;;;;;;4.77;4.23;;;30.00;35.20;;;;;;5093820;28;20433;-79
2023/05/14 11:42:36;;;;;;;5.67;3.77;;;30.10;35.50;;;;;;5087599;28;20435;-80
2023/05/14 11:45:05;;;;;;;4.70;4.20;;;30.20;35.90;;;;;;5096305;28;20437;-80
2023/05/14 11:47:34;;;;;;;4.60;4.30;;;30.30;34.70;;;;;;5086817;28;20432;-79
2023/05/14 11:50:02;;;;;;;3.77;3.47;;;30.20;34.40;;;;;;5092108;28;20446;-79
2023/05/14 11:52:30;;;;;;;4.27;3.63;;;30.30;34.90;;;;;;5091277;28;20492;-80
2023/05/14 11:54:58;;;;;;;5.87;3.70;;;30.70;35.40;;;;;;5092123;28;20433;-80
2023/05/14 11:57:27;;;;;;;4.00;3.70;;;31.00;34.80;;;;;;5082460;28;20431;-79
2023/05/14 11:59:57;;;;;;;7.80;4.00;;;31.10;32.60;;;;;;5084867;28;20412;-79
2023/05/14 12:02:27;;;;;;;4.00;3.70;;;31.20;32.00;;;;;;5085632;28;20400;-81
2023/05/14 12:04:56;;;;;;;3.60;3.40;;;31.20;29.90;;;;;;5090282;28;20469;-80
2023/05/14 12:07:24;;;;;;;3.40;3.20;;;31.10;29.90;;;;;;5092122;28;20407;-78
2023/05/14 12:09:52;;;;;;;3.37;3.07;;;31.30;29.70;;;;;;5092705;28;20419;-78
2023/05/14 12:12:20;;;;;;;5.30;3.13;;;31.70;29.80;;;;;;5091652;28;20468;-78
2023/05/14 12:14:51;;;;;;;3.10;3.00;;;31.90;29.80;;;;;;5089174;28;20469;-79
2023/05/14 12:17:20;;;;;;;3.70;3.50;;;32.00;29.10;;;;;;5087646;28;20427;-81
2023/05/14 12:19:48;;;;;;;3.03;2.77;;;32.00;28.60;;;;;;5079756;28;20450;-80
2023/05/14 12:22:17;;;;;;;4.77;3.43;;;32.10;28.30;;;;;;5088451;28;20422;-79
2023/05/14 12:24:52;;;;;;;2.97;2.87;;;32.10;28.50;;;;;;5089195;28;20427;-80
2023/05/14 12:27:22;;;;;;;7.20;6.50;;;32.40;28.80;;;;;;5092087;28;20448;-82
2023/05/14 12:29:53;;;;;;;8.63;7.60;;;32.50;28.80;;;;;;5080926;28;20445;-82
2023/05/14 12:32:21;;;;;;;8.20;7.40;;;32.60;28.60;;;;;;5087830;28;20479;-81
2023/05/14 12:34:49;;;;;;;4.33;4.13;;;32.80;28.50;;;;;;5080859;28;20452;-81
2023/05/14 12:37:18;;;;;;;3.63;3.53;;;32.70;27.90;;;;;;5077550;28;20434;-78
2023/05/14 12:39:46;;;;;;;3.57;3.37;;;32.60;27.80;;;;;;5097570;28;20444;-80
2023/05/14 12:42:14;;;;;;;3.50;3.27;;;32.80;28.30;;;;;;5097000;28;20495;-82
2023/05/14 12:44:43;;;;;;;3.70;3.50;;;33.00;28.50;;;;;;5084568;28;20943;-80
2023/05/14 12:47:13;;;;;;;3.70;3.60;;;33.10;28.90;;;;;;5076543;28;20434;-80
2023/05/14 12:49:41;;;;;;;5.40;3.70;;;33.00;29.10;;;;;;5084682;28;20540;-81
2023/05/14 12:52:09;;;;;;;4.30;4.00;;;32.80;29.20;;;;;;5077923;28;20939;-80